PWSweather.com
Personal Weather Stations
Station Observations
IPORTUGA89
BarosaPT

BarosaPT

Lat: 39.754028, Lon: -8.843

Elevation: 98

Station Type: Davis Vp2

Latest ConditionsUpdated 11:15:05 PM GMT Wednesday, Sep 19, 2018
Currently Today's Max Today's Min Today's Average
Temperature 57.0°F13.9°C 81.3°F27.4°C 57.0°F13.9°C 67.4°F19.7°C
Dew Point 54.7°F12.6°C 64.0°F17.8°C 54.7°F12.6°C 59.5°F15.3°C
Winds Calm Calm 11.0 mph -17.7 kmh - - 4.5 mph 7.2 kmh
Wind Gusts -- 21.0 mph33.8 kmh - -
Humidity 92% 95% 51% 78%
Pressure 30.22 in1023.4 mb 30.23 in1023.7 mb 30.15 in1021.0 mb -
Hour Temp Dew Point Humidity Winds Wind Gusts Pressure Precip Precip Rate Daily Precip Total
11:15 PM 57.0°F13.9°C 54.7°F12.6°C 92% Calm Calm -- 30.22 in1023.4 mb 0.00 in0.0 mm 0.00 in0.0 mm 0.00 in0.0 mm
11:04 PM 57.2°F14.0°C 54.9°F12.7°C 92% Calm Calm -- 30.22 in1023.4 mb 0.00 in0.0 mm 0.00 in0.0 mm 0.00 in0.0 mm
10:54 PM 57.6°F14.2°C 55.2°F12.9°C 92% Calm Calm -- 30.22 in1023.4 mb 0.00 in0.0 mm 0.00 in0.0 mm 0.00 in0.0 mm
10:44 PM 57.6°F14.2°C 55.0°F12.8°C 91% Calm Calm -- 30.22 in1023.4 mb 0.00 in0.0 mm 0.00 in0.0 mm 0.00 in0.0 mm
10:34 PM 57.9°F14.4°C 55.2°F12.9°C 91% Calm Calm 2.0 mph3.2 kmh 30.22 in1023.4 mb 0.00 in0.0 mm 0.00 in0.0 mm 0.00 in0.0 mm
10:24 PM 58.5°F14.7°C 55.8°F13.2°C 91% Calm Calm -- 30.22 in1023.4 mb 0.00 in0.0 mm 0.00 in0.0 mm 0.00 in0.0 mm
10:14 PM 58.6°F14.8°C 55.8°F13.2°C 90% Calm Calm -- 30.22 in1023.4 mb 0.00 in0.0 mm 0.00 in0.0 mm 0.00 in0.0 mm
10:03 PM 59.4°F15.2°C 56.5°F13.6°C 90% Calm Calm 0.9 mph1.4 kmh 30.22 in1023.4 mb 0.00 in0.0 mm 0.00 in0.0 mm 0.00 in0.0 mm
09:53 PM 59.9°F15.5°C 57.0°F13.9°C 90% 0.9 mph WNW1.4 kmh WNW 2.0 mph3.2 kmh 30.23 in1023.7 mb 0.00 in0.0 mm 0.00 in0.0 mm 0.00 in0.0 mm
09:43 PM 60.3°F15.7°C 57.4°F14.1°C 90% 0.9 mph WNW1.4 kmh WNW 2.0 mph3.2 kmh 30.23 in1023.7 mb 0.00 in0.0 mm 0.00 in0.0 mm 0.00 in0.0 mm
09:33 PM 60.6°F15.9°C 57.4°F14.1°C 89% 0.9 mph WNW1.4 kmh WNW 2.0 mph3.2 kmh 30.23 in1023.7 mb 0.00 in0.0 mm 0.00 in0.0 mm 0.00 in0.0 mm
09:23 PM 61.0°F16.1°C 57.7°F14.3°C 89% 0.9 mph WNW1.4 kmh WNW 2.0 mph3.2 kmh 30.22 in1023.4 mb 0.00 in0.0 mm 0.00 in0.0 mm 0.00 in0.0 mm
09:13 PM 61.2°F16.2°C 57.9°F14.4°C 89% 2.0 mph WNW3.2 kmh WNW 4.0 mph6.4 kmh 30.22 in1023.4 mb 0.00 in0.0 mm 0.00 in0.0 mm 0.00 in0.0 mm
09:03 PM 61.3°F16.3°C 57.7°F14.3°C 88% 0.9 mph WNW1.4 kmh WNW 2.9 mph4.7 kmh 30.22 in1023.4 mb 0.00 in0.0 mm 0.00 in0.0 mm 0.00 in0.0 mm
08:53 PM 61.9°F16.6°C 57.9°F14.4°C 87% 0.9 mph WNW1.4 kmh WNW 2.9 mph4.7 kmh 30.22 in1023.4 mb 0.00 in0.0 mm 0.00 in0.0 mm 0.00 in0.0 mm
08:43 PM 62.4°F16.9°C 58.1°F14.5°C 86% 0.9 mph WNW1.4 kmh WNW 4.0 mph6.4 kmh 30.22 in1023.4 mb 0.00 in0.0 mm 0.00 in0.0 mm 0.00 in0.0 mm
08:33 PM 63.1°F17.3°C 58.8°F14.9°C 86% 2.0 mph NW3.2 kmh NW 2.9 mph4.7 kmh 30.22 in1023.4 mb 0.00 in0.0 mm 0.00 in0.0 mm 0.00 in0.0 mm
08:23 PM 63.7°F17.6°C 59.0°F15.0°C 85% 2.9 mph NW4.7 kmh NW 4.9 mph7.9 kmh 30.22 in1023.4 mb 0.00 in0.0 mm 0.00 in0.0 mm 0.00 in0.0 mm
08:13 PM 64.0°F17.8°C 59.4°F15.2°C 85% 4.0 mph NW6.4 kmh NW 4.9 mph7.9 kmh 30.22 in1023.4 mb 0.00 in0.0 mm 0.00 in0.0 mm 0.00 in0.0 mm
08:03 PM 64.2°F17.9°C 59.4°F15.2°C 84% 2.9 mph NW4.7 kmh NW 4.9 mph7.9 kmh 30.21 in1023.0 mb 0.00 in0.0 mm 0.00 in0.0 mm 0.00 in0.0 mm
07:53 PM 64.8°F18.2°C 59.2°F15.1°C 82% 2.9 mph NW4.7 kmh NW 6.0 mph9.7 kmh 30.21 in1023.0 mb 0.00 in0.0 mm 0.00 in0.0 mm 0.00 in0.0 mm
07:43 PM 65.1°F18.4°C 59.2°F15.1°C 81% 2.9 mph NW4.7 kmh NW 4.9 mph7.9 kmh 30.20 in1022.7 mb 0.00 in0.0 mm 0.00 in0.0 mm 0.00 in0.0 mm
07:33 PM 65.7°F18.7°C 59.4°F15.2°C 80% 2.9 mph NW4.7 kmh NW 6.0 mph9.7 kmh 30.20 in1022.7 mb 0.00 in0.0 mm 0.00 in0.0 mm 0.00 in0.0 mm
07:22 PM 66.2°F19.0°C 59.5°F15.3°C 79% 2.9 mph NW4.7 kmh NW 4.9 mph7.9 kmh 30.20 in1022.7 mb 0.00 in0.0 mm 0.00 in0.0 mm 0.00 in0.0 mm
07:12 PM 66.7°F19.3°C 59.7°F15.4°C 78% 4.0 mph NW6.4 kmh NW 8.1 mph13.0 kmh 30.19 in1022.4 mb 0.00 in0.0 mm 0.00 in0.0 mm 0.00 in0.0 mm
07:02 PM 67.3°F19.6°C 59.5°F15.3°C 76% 4.0 mph NW6.4 kmh NW 6.9 mph11.1 kmh 30.19 in1022.4 mb 0.00 in0.0 mm 0.00 in0.0 mm 0.00 in0.0 mm
06:52 PM 67.8°F19.9°C 59.5°F15.3°C 75% 4.9 mph N7.9 kmh N 8.9 mph14.3 kmh 30.19 in1022.4 mb 0.00 in0.0 mm 0.00 in0.0 mm 0.00 in0.0 mm
06:42 PM 68.4°F20.2°C 59.7°F15.4°C 74% 6.0 mph NW9.7 kmh NW 11.0 mph17.7 kmh 30.19 in1022.4 mb 0.00 in0.0 mm 0.00 in0.0 mm 0.00 in0.0 mm
06:32 PM 69.1°F20.6°C 60.1°F15.6°C 73% 4.9 mph NW7.9 kmh NW 11.0 mph17.7 kmh 30.18 in1022.0 mb 0.00 in0.0 mm 0.00 in0.0 mm 0.00 in0.0 mm
06:22 PM 69.4°F20.8°C 60.1°F15.6°C 72% 6.9 mph WNW11.1 kmh WNW 13.0 mph20.9 kmh 30.19 in1022.4 mb 0.00 in0.0 mm 0.00 in0.0 mm 0.00 in0.0 mm
06:12 PM 70.2°F21.2°C 59.9°F15.5°C 70% 6.0 mph NW9.7 kmh NW 13.0 mph20.9 kmh 30.18 in1022.0 mb 0.00 in0.0 mm 0.00 in0.0 mm 0.00 in0.0 mm
06:02 PM 71.1°F21.7°C 60.4°F15.8°C 69% 6.9 mph NNW11.1 kmh NNW 15.0 mph24.1 kmh 30.18 in1022.0 mb 0.00 in0.0 mm 0.00 in0.0 mm 0.00 in0.0 mm
05:52 PM 72.1°F22.3°C 60.6°F15.9°C 67% 6.9 mph NNW11.1 kmh NNW 14.1 mph22.7 kmh 30.18 in1022.0 mb 0.00 in0.0 mm 0.00 in0.0 mm 0.00 in0.0 mm
05:42 PM 73.0°F22.8°C 61.0°F16.1°C 66% 8.1 mph NNW13.0 kmh NNW 15.0 mph24.1 kmh 30.18 in1022.0 mb 0.00 in0.0 mm 0.00 in0.0 mm 0.00 in0.0 mm
05:32 PM 73.6°F23.1°C 61.2°F16.2°C 65% 8.1 mph NNW13.0 kmh NNW 13.0 mph20.9 kmh 30.18 in1022.0 mb 0.00 in0.0 mm 0.00 in0.0 mm 0.00 in0.0 mm
05:22 PM 73.9°F23.3°C 61.0°F16.1°C 64% 8.9 mph N14.3 kmh N 17.0 mph27.4 kmh 30.18 in1022.0 mb 0.00 in0.0 mm 0.00 in0.0 mm 0.00 in0.0 mm
05:12 PM 74.5°F23.6°C 61.0°F16.1°C 63% 10.1 mph NW16.3 kmh NW 17.9 mph28.8 kmh 30.18 in1022.0 mb 0.00 in0.0 mm 0.00 in0.0 mm 0.00 in0.0 mm
05:02 PM 75.0°F23.9°C 60.6°F15.9°C 61% 11.0 mph NW17.7 kmh NW 21.0 mph33.8 kmh 30.17 in1021.7 mb 0.00 in0.0 mm 0.00 in0.0 mm 0.00 in0.0 mm
04:52 PM 75.9°F24.4°C 60.6°F15.9°C 59% 10.1 mph NW16.3 kmh NW 19.0 mph30.6 kmh 30.17 in1021.7 mb 0.00 in0.0 mm 0.00 in0.0 mm 0.00 in0.0 mm
04:42 PM 76.6°F24.8°C 60.8°F16.0°C 58% 11.0 mph NW17.7 kmh NW 17.9 mph28.8 kmh 30.17 in1021.7 mb 0.00 in0.0 mm 0.00 in0.0 mm 0.00 in0.0 mm
04:32 PM 77.2°F25.1°C 61.3°F16.3°C 58% 10.1 mph NW16.3 kmh NW 19.0 mph30.6 kmh 30.17 in1021.7 mb 0.00 in0.0 mm 0.00 in0.0 mm 0.00 in0.0 mm
04:22 PM 77.4°F25.2°C 61.0°F16.1°C 57% 10.1 mph NW16.3 kmh NW 17.0 mph27.4 kmh 30.17 in1021.7 mb 0.00 in0.0 mm 0.00 in0.0 mm 0.00 in0.0 mm
04:12 PM 78.3°F25.7°C 61.3°F16.3°C 56% 10.1 mph NW16.3 kmh NW 19.9 mph32.0 kmh 30.16 in1021.3 mb 0.00 in0.0 mm 0.00 in0.0 mm 0.00 in0.0 mm
04:02 PM 78.6°F25.9°C 61.2°F16.2°C 55% 11.0 mph NW17.7 kmh NW 17.9 mph28.8 kmh 30.16 in1021.3 mb 0.00 in0.0 mm 0.00 in0.0 mm 0.00 in0.0 mm
03:52 PM 79.2°F26.2°C 61.5°F16.4°C 55% 8.9 mph NNW14.3 kmh NNW 19.0 mph30.6 kmh 30.16 in1021.3 mb 0.00 in0.0 mm 0.00 in0.0 mm 0.00 in0.0 mm
03:42 PM 79.5°F26.4°C 61.3°F16.3°C 54% 11.0 mph N17.7 kmh N 17.9 mph28.8 kmh 30.16 in1021.3 mb 0.00 in0.0 mm 0.00 in0.0 mm 0.00 in0.0 mm
03:32 PM 80.1°F26.7°C 60.8°F16.0°C 52% 11.0 mph NW17.7 kmh NW 19.0 mph30.6 kmh 30.16 in1021.3 mb 0.00 in0.0 mm 0.00 in0.0 mm 0.00 in0.0 mm
03:22 PM 80.2°F26.8°C 61.0°F16.1°C 52% 11.0 mph NNW17.7 kmh NNW 19.9 mph32.0 kmh 30.16 in1021.3 mb 0.00 in0.0 mm 0.00 in0.0 mm 0.00 in0.0 mm
03:12 PM 80.2°F26.8°C 60.4°F15.8°C 51% 10.1 mph N16.3 kmh N 16.1 mph25.9 kmh 30.16 in1021.3 mb 0.00 in0.0 mm 0.00 in0.0 mm 0.00 in0.0 mm
03:02 PM 80.1°F26.7°C 61.3°F16.3°C 53% 10.1 mph NW16.3 kmh NW 17.9 mph28.8 kmh 30.16 in1021.3 mb 0.00 in0.0 mm 0.00 in0.0 mm 0.00 in0.0 mm
02:52 PM 80.4°F26.9°C 61.7°F16.5°C 53% 10.1 mph N16.3 kmh N 17.9 mph28.8 kmh 30.16 in1021.3 mb 0.00 in0.0 mm 0.00 in0.0 mm 0.00 in0.0 mm
02:42 PM 80.8°F27.1°C 61.5°F16.4°C 52% 10.1 mph NW16.3 kmh NW 17.9 mph28.8 kmh 30.17 in1021.7 mb 0.00 in0.0 mm 0.00 in0.0 mm 0.00 in0.0 mm
02:32 PM 80.4°F26.9°C 61.7°F16.5°C 53% 10.1 mph NNW16.3 kmh NNW 17.9 mph28.8 kmh 30.17 in1021.7 mb 0.00 in0.0 mm 0.00 in0.0 mm 0.00 in0.0 mm
02:22 PM 81.0°F27.2°C 62.2°F16.8°C 53% 10.1 mph NNW16.3 kmh NNW 17.9 mph28.8 kmh 30.17 in1021.7 mb 0.00 in0.0 mm 0.00 in0.0 mm 0.00 in0.0 mm
02:12 PM 81.3°F27.4°C 62.6°F17.0°C 53% 8.9 mph NW14.3 kmh NW 16.1 mph25.9 kmh 30.17 in1021.7 mb 0.00 in0.0 mm 0.00 in0.0 mm 0.00 in0.0 mm
02:02 PM 81.1°F27.3°C 63.0°F17.2°C 54% 8.9 mph NW14.3 kmh NW 15.0 mph24.1 kmh 30.17 in1021.7 mb 0.00 in0.0 mm 0.00 in0.0 mm 0.00 in0.0 mm
01:52 PM 81.0°F27.2°C 63.3°F17.4°C 55% 11.0 mph NNW17.7 kmh NNW 17.9 mph28.8 kmh 30.17 in1021.7 mb 0.00 in0.0 mm 0.00 in0.0 mm 0.00 in0.0 mm
01:42 PM 81.1°F27.3°C 62.4°F16.9°C 53% 10.1 mph NNW16.3 kmh NNW 19.0 mph30.6 kmh 30.17 in1021.7 mb 0.00 in0.0 mm 0.00 in0.0 mm 0.00 in0.0 mm
01:32 PM 81.1°F27.3°C 64.0°F17.8°C 56% 6.9 mph NW11.1 kmh NW 15.0 mph24.1 kmh 30.17 in1021.7 mb 0.00 in0.0 mm 0.00 in0.0 mm 0.00 in0.0 mm
01:22 PM 80.4°F26.9°C 62.8°F17.1°C 55% 8.1 mph NNW13.0 kmh NNW 14.1 mph22.7 kmh 30.18 in1022.0 mb 0.00 in0.0 mm 0.00 in0.0 mm 0.00 in0.0 mm
01:12 PM 80.4°F26.9°C 62.8°F17.1°C 55% 8.1 mph NW13.0 kmh NW 14.1 mph22.7 kmh 30.18 in1022.0 mb 0.00 in0.0 mm 0.00 in0.0 mm 0.00 in0.0 mm
01:02 PM 80.1°F26.7°C 63.0°F17.2°C 56% 10.1 mph NW16.3 kmh NW 16.1 mph25.9 kmh 30.18 in1022.0 mb 0.00 in0.0 mm 0.00 in0.0 mm 0.00 in0.0 mm
12:52 PM 79.5°F26.4°C 62.4°F16.9°C 56% 8.9 mph N14.3 kmh N 15.0 mph24.1 kmh 30.18 in1022.0 mb 0.00 in0.0 mm 0.00 in0.0 mm 0.00 in0.0 mm
12:42 PM 79.9°F26.6°C 62.8°F17.1°C 56% 8.9 mph NNW14.3 kmh NNW 16.1 mph25.9 kmh 30.18 in1022.0 mb 0.00 in0.0 mm 0.00 in0.0 mm 0.00 in0.0 mm
12:32 PM 79.5°F26.4°C 63.0°F17.2°C 57% 10.1 mph WNW16.3 kmh WNW 15.0 mph24.1 kmh 30.18 in1022.0 mb 0.00 in0.0 mm 0.00 in0.0 mm 0.00 in0.0 mm
12:22 PM 79.7°F26.5°C 62.1°F16.7°C 55% 8.9 mph NW14.3 kmh NW 15.0 mph24.1 kmh 30.19 in1022.4 mb 0.00 in0.0 mm 0.00 in0.0 mm 0.00 in0.0 mm
12:12 PM 79.9°F26.6°C 62.2°F16.8°C 55% 8.9 mph WNW14.3 kmh WNW 15.0 mph24.1 kmh 30.19 in1022.4 mb 0.00 in0.0 mm 0.00 in0.0 mm 0.00 in0.0 mm
12:02 PM 79.3°F26.3°C 61.7°F16.5°C 55% 8.1 mph NW13.0 kmh NW 14.1 mph22.7 kmh 30.18 in1022.0 mb 0.00 in0.0 mm 0.00 in0.0 mm 0.00 in0.0 mm
11:52 AM 79.0°F26.1°C 59.9°F15.5°C 52% 6.9 mph ENE11.1 kmh ENE 17.0 mph27.4 kmh 30.19 in1022.4 mb 0.00 in0.0 mm 0.00 in0.0 mm 0.00 in0.0 mm
11:41 AM 78.4°F25.8°C 59.9°F15.5°C 53% 8.1 mph NNW13.0 kmh NNW 14.1 mph22.7 kmh 30.19 in1022.4 mb 0.00 in0.0 mm 0.00 in0.0 mm 0.00 in0.0 mm
11:31 AM 78.6°F25.9°C 60.6°F15.9°C 54% 8.1 mph NNE13.0 kmh NNE 15.0 mph24.1 kmh 30.19 in1022.4 mb 0.00 in0.0 mm 0.00 in0.0 mm 0.00 in0.0 mm
11:21 AM 78.1°F25.6°C 60.1°F15.6°C 54% 8.9 mph NNE14.3 kmh NNE 19.0 mph30.6 kmh 30.19 in1022.4 mb 0.00 in0.0 mm 0.00 in0.0 mm 0.00 in0.0 mm
11:11 AM 77.5°F25.3°C 60.1°F15.6°C 55% 8.1 mph NNW13.0 kmh NNW 16.1 mph25.9 kmh 30.19 in1022.4 mb 0.00 in0.0 mm 0.00 in0.0 mm 0.00 in0.0 mm
11:01 AM 76.8°F24.9°C 60.4°F15.8°C 57% 8.1 mph NNE13.0 kmh NNE 15.0 mph24.1 kmh 30.20 in1022.7 mb 0.00 in0.0 mm 0.00 in0.0 mm 0.00 in0.0 mm
10:51 AM 76.6°F24.8°C 61.7°F16.5°C 60% 6.9 mph NW11.1 kmh NW 12.1 mph19.5 kmh 30.20 in1022.7 mb 0.00 in0.0 mm 0.00 in0.0 mm 0.00 in0.0 mm
10:41 AM 75.6°F24.2°C 61.7°F16.5°C 62% 6.0 mph NNE9.7 kmh NNE 11.0 mph17.7 kmh 30.20 in1022.7 mb 0.00 in0.0 mm 0.00 in0.0 mm 0.00 in0.0 mm
10:31 AM 74.8°F23.8°C 61.3°F16.3°C 63% 6.9 mph NNW11.1 kmh NNW 12.1 mph19.5 kmh 30.20 in1022.7 mb 0.00 in0.0 mm 0.00 in0.0 mm 0.00 in0.0 mm
10:21 AM 74.1°F23.4°C 62.1°F16.7°C 66% 6.0 mph N9.7 kmh N 14.1 mph22.7 kmh 30.20 in1022.7 mb 0.00 in0.0 mm 0.00 in0.0 mm 0.00 in0.0 mm
10:11 AM 73.6°F23.1°C 61.2°F16.2°C 65% 6.0 mph NW9.7 kmh NW 12.1 mph19.5 kmh 30.21 in1023.0 mb 0.00 in0.0 mm 0.00 in0.0 mm 0.00 in0.0 mm
10:01 AM 73.6°F23.1°C 61.9°F16.6°C 67% 4.9 mph N7.9 kmh N 10.1 mph16.3 kmh 30.21 in1023.0 mb 0.00 in0.0 mm 0.00 in0.0 mm 0.00 in0.0 mm
09:51 AM 72.9°F22.7°C 62.4°F16.9°C 70% 6.9 mph N11.1 kmh N 11.0 mph17.7 kmh 30.21 in1023.0 mb 0.00 in0.0 mm 0.00 in0.0 mm 0.00 in0.0 mm
09:41 AM 71.8°F22.1°C 62.6°F17.0°C 73% 4.0 mph NW6.4 kmh NW 10.1 mph16.3 kmh 30.21 in1023.0 mb 0.00 in0.0 mm 0.00 in0.0 mm 0.00 in0.0 mm
09:31 AM 70.3°F21.3°C 61.7°F16.5°C 74% 4.9 mph NE7.9 kmh NE 8.9 mph14.3 kmh 30.21 in1023.0 mb 0.00 in0.0 mm 0.00 in0.0 mm 0.00 in0.0 mm
09:21 AM 69.6°F20.9°C 61.7°F16.5°C 76% 2.0 mph NNE3.2 kmh NNE 4.9 mph7.9 kmh 30.21 in1023.0 mb 0.00 in0.0 mm 0.00 in0.0 mm 0.00 in0.0 mm
09:11 AM 68.7°F20.4°C 61.5°F16.4°C 78% 2.9 mph NE4.7 kmh NE 4.9 mph7.9 kmh 30.21 in1023.0 mb 0.00 in0.0 mm 0.00 in0.0 mm 0.00 in0.0 mm
09:01 AM 67.8°F19.9°C 61.7°F16.5°C 81% 4.0 mph NE6.4 kmh NE 6.9 mph11.1 kmh 30.20 in1022.7 mb 0.00 in0.0 mm 0.00 in0.0 mm 0.00 in0.0 mm
08:51 AM 67.1°F19.5°C 61.3°F16.3°C 82% 2.0 mph NE3.2 kmh NE 4.9 mph7.9 kmh 30.20 in1022.7 mb 0.00 in0.0 mm 0.00 in0.0 mm 0.00 in0.0 mm
08:41 AM 66.4°F19.1°C 62.1°F16.7°C 86% 2.0 mph NNE3.2 kmh NNE 4.0 mph6.4 kmh 30.20 in1022.7 mb 0.00 in0.0 mm 0.00 in0.0 mm 0.00 in0.0 mm
08:31 AM 64.9°F18.3°C 61.3°F16.3°C 88% 2.9 mph NW4.7 kmh NW 4.9 mph7.9 kmh 30.20 in1022.7 mb 0.00 in0.0 mm 0.00 in0.0 mm 0.00 in0.0 mm
08:21 AM 64.4°F18.0°C 61.7°F16.5°C 91% 0.9 mph NE1.4 kmh NE 2.9 mph4.7 kmh 30.20 in1022.7 mb 0.00 in0.0 mm 0.00 in0.0 mm 0.00 in0.0 mm
08:11 AM 63.3°F17.4°C 61.0°F16.1°C 92% 0.9 mph N1.4 kmh N 2.9 mph4.7 kmh 30.20 in1022.7 mb 0.00 in0.0 mm 0.00 in0.0 mm 0.00 in0.0 mm
08:01 AM 63.0°F17.2°C 61.2°F16.2°C 94% 2.0 mph NE3.2 kmh NE 4.0 mph6.4 kmh 30.20 in1022.7 mb 0.00 in0.0 mm 0.00 in0.0 mm 0.00 in0.0 mm
07:51 AM 62.4°F16.9°C 61.0°F16.1°C 95% 0.9 mph NNE1.4 kmh NNE 2.0 mph3.2 kmh 30.20 in1022.7 mb 0.00 in0.0 mm 0.00 in0.0 mm 0.00 in0.0 mm
07:41 AM 61.5°F16.4°C 60.1°F15.6°C 95% 0.9 mph N1.4 kmh N 2.9 mph4.7 kmh 30.20 in1022.7 mb 0.00 in0.0 mm 0.00 in0.0 mm 0.00 in0.0 mm
07:31 AM 60.6°F15.9°C 59.2°F15.1°C 95% 2.0 mph N3.2 kmh N 4.0 mph6.4 kmh 30.19 in1022.4 mb 0.00 in0.0 mm 0.00 in0.0 mm 0.00 in0.0 mm
07:21 AM 59.9°F15.5°C 58.5°F14.7°C 95% 2.0 mph N3.2 kmh N 4.0 mph6.4 kmh 30.19 in1022.4 mb 0.00 in0.0 mm 0.00 in0.0 mm 0.00 in0.0 mm
07:11 AM 59.7°F15.4°C 58.3°F14.6°C 95% 2.0 mph NNW3.2 kmh NNW 4.0 mph6.4 kmh 30.19 in1022.4 mb 0.00 in0.0 mm 0.00 in0.0 mm 0.00 in0.0 mm
07:01 AM 59.7°F15.4°C 58.3°F14.6°C 95% 2.9 mph N4.7 kmh N 4.9 mph7.9 kmh 30.19 in1022.4 mb 0.00 in0.0 mm 0.00 in0.0 mm 0.00 in0.0 mm
06:51 AM 59.5°F15.3°C 58.1°F14.5°C 95% 2.0 mph NW3.2 kmh NW 4.0 mph6.4 kmh 30.19 in1022.4 mb 0.00 in0.0 mm 0.00 in0.0 mm 0.00 in0.0 mm
06:41 AM 59.4°F15.2°C 57.9°F14.4°C 95% 2.0 mph NW3.2 kmh NW 4.0 mph6.4 kmh 30.19 in1022.4 mb 0.00 in0.0 mm 0.00 in0.0 mm 0.00 in0.0 mm
06:31 AM 59.2°F15.1°C 57.7°F14.3°C 95% 2.0 mph NW3.2 kmh NW 4.0 mph6.4 kmh 30.18 in1022.0 mb 0.00 in0.0 mm 0.00 in0.0 mm 0.00 in0.0 mm
06:21 AM 58.8°F14.9°C 57.4°F14.1°C 95% 0.9 mph N1.4 kmh N 2.0 mph3.2 kmh 30.18 in1022.0 mb 0.00 in0.0 mm 0.00 in0.0 mm 0.00 in0.0 mm
06:11 AM 58.8°F14.9°C 57.4°F14.1°C 95% 0.9 mph N1.4 kmh N 2.0 mph3.2 kmh 30.18 in1022.0 mb 0.00 in0.0 mm 0.00 in0.0 mm 0.00 in0.0 mm
06:00 AM 58.8°F14.9°C 57.4°F14.1°C 95% 0.9 mph N1.4 kmh N 2.0 mph3.2 kmh 30.18 in1022.0 mb 0.00 in0.0 mm 0.00 in0.0 mm 0.00 in0.0 mm
05:50 AM 59.0°F15.0°C 57.6°F14.2°C 95% 0.9 mph N1.4 kmh N 2.0 mph3.2 kmh 30.18 in1022.0 mb 0.00 in0.0 mm 0.00 in0.0 mm 0.00 in0.0 mm
05:40 AM 59.2°F15.1°C 57.7°F14.3°C 95% 2.0 mph N3.2 kmh N 4.0 mph6.4 kmh 30.17 in1021.7 mb 0.00 in0.0 mm 0.00 in0.0 mm 0.00 in0.0 mm
05:30 AM 59.4°F15.2°C 57.9°F14.4°C 95% 2.0 mph NW3.2 kmh NW 4.0 mph6.4 kmh 30.17 in1021.7 mb 0.00 in0.0 mm 0.00 in0.0 mm 0.00 in0.0 mm
05:20 AM 59.2°F15.1°C 57.7°F14.3°C 95% 2.9 mph N4.7 kmh N 6.0 mph9.7 kmh 30.17 in1021.7 mb 0.00 in0.0 mm 0.00 in0.0 mm 0.00 in0.0 mm
05:10 AM 59.2°F15.1°C 57.7°F14.3°C 95% 2.0 mph NNW3.2 kmh NNW 6.0 mph9.7 kmh 30.17 in1021.7 mb 0.00 in0.0 mm 0.00 in0.0 mm 0.00 in0.0 mm
05:00 AM 59.0°F15.0°C 57.6°F14.2°C 95% 2.0 mph N3.2 kmh N 4.9 mph7.9 kmh 30.17 in1021.7 mb 0.00 in0.0 mm 0.00 in0.0 mm 0.00 in0.0 mm
04:50 AM 58.8°F14.9°C 57.4°F14.1°C 95% 4.0 mph N6.4 kmh N 8.9 mph14.3 kmh 30.16 in1021.3 mb 0.00 in0.0 mm 0.00 in0.0 mm 0.00 in0.0 mm
04:40 AM 58.8°F14.9°C 57.4°F14.1°C 95% 4.0 mph N6.4 kmh N 8.9 mph14.3 kmh 30.16 in1021.3 mb 0.00 in0.0 mm 0.00 in0.0 mm 0.00 in0.0 mm
04:30 AM 58.6°F14.8°C 57.2°F14.0°C 95% 2.9 mph NNW4.7 kmh NNW 4.9 mph7.9 kmh 30.16 in1021.3 mb 0.00 in0.0 mm 0.00 in0.0 mm 0.00 in0.0 mm
04:20 AM 58.6°F14.8°C 57.2°F14.0°C 95% 2.9 mph NNW4.7 kmh NNW 4.9 mph7.9 kmh 30.17 in1021.7 mb 0.00 in0.0 mm 0.00 in0.0 mm 0.00 in0.0 mm
04:10 AM 58.5°F14.7°C 56.7°F13.7°C 94% 2.9 mph N4.7 kmh N 6.9 mph11.1 kmh 30.16 in1021.3 mb 0.00 in0.0 mm 0.00 in0.0 mm 0.00 in0.0 mm
04:00 AM 58.5°F14.7°C 56.7°F13.7°C 94% 2.9 mph NW4.7 kmh NW 4.9 mph7.9 kmh 30.16 in1021.3 mb 0.00 in0.0 mm 0.00 in0.0 mm 0.00 in0.0 mm
03:50 AM 58.5°F14.7°C 56.7°F13.7°C 94% 2.9 mph N4.7 kmh N 4.9 mph7.9 kmh 30.16 in1021.3 mb 0.00 in0.0 mm 0.00 in0.0 mm 0.00 in0.0 mm
03:40 AM 58.5°F14.7°C 56.7°F13.7°C 94% 2.9 mph N4.7 kmh N 8.1 mph13.0 kmh 30.16 in1021.3 mb 0.00 in0.0 mm 0.00 in0.0 mm 0.00 in0.0 mm
03:30 AM 58.5°F14.7°C 56.7°F13.7°C 94% 4.0 mph N6.4 kmh N 8.1 mph13.0 kmh 30.16 in1021.3 mb 0.00 in0.0 mm 0.00 in0.0 mm 0.00 in0.0 mm
03:20 AM 58.6°F14.8°C 57.2°F14.0°C 95% 2.9 mph 4.7 kmh 6.0 mph9.7 kmh 30.15 in1021.0 mb 0.00 in0.0 mm 0.00 in0.0 mm 0.00 in0.0 mm
03:10 AM 58.5°F14.7°C 57.0°F13.9°C 95% 2.0 mph NNE3.2 kmh NNE 4.0 mph6.4 kmh 30.15 in1021.0 mb 0.00 in0.0 mm 0.00 in0.0 mm 0.00 in0.0 mm
03:00 AM 57.4°F14.1°C 55.6°F13.1°C 94% 0.9 mph NNE1.4 kmh NNE 4.0 mph6.4 kmh 30.16 in1021.3 mb 0.00 in0.0 mm 0.00 in0.0 mm 0.00 in0.0 mm
02:50 AM 57.4°F14.1°C 55.6°F13.1°C 94% Calm Calm 2.9 mph4.7 kmh 30.16 in1021.3 mb 0.00 in0.0 mm 0.00 in0.0 mm 0.00 in0.0 mm
02:40 AM 57.7°F14.3°C 55.9°F13.3°C 94% Calm Calm 2.0 mph3.2 kmh 30.15 in1021.0 mb 0.00 in0.0 mm 0.00 in0.0 mm 0.00 in0.0 mm
02:30 AM 58.3°F14.6°C 56.3°F13.5°C 93% 0.9 mph NNW1.4 kmh NNW 2.0 mph3.2 kmh 30.15 in1021.0 mb 0.00 in0.0 mm 0.00 in0.0 mm 0.00 in0.0 mm
02:20 AM 59.2°F15.1°C 57.4°F14.1°C 94% 2.0 mph NNW3.2 kmh NNW 4.0 mph6.4 kmh 30.15 in1021.0 mb 0.00 in0.0 mm 0.00 in0.0 mm 0.00 in0.0 mm
02:10 AM 59.5°F15.3°C 57.7°F14.3°C 94% 2.0 mph NW3.2 kmh NW 4.0 mph6.4 kmh 30.15 in1021.0 mb 0.00 in0.0 mm 0.00 in0.0 mm 0.00 in0.0 mm
02:00 AM 59.7°F15.4°C 57.9°F14.4°C 94% Calm Calm -- 30.15 in1021.0 mb 0.00 in0.0 mm 0.00 in0.0 mm 0.00 in0.0 mm
01:50 AM 60.1°F15.6°C 58.3°F14.6°C 94% Calm Calm 2.0 mph3.2 kmh 30.15 in1021.0 mb 0.00 in0.0 mm 0.00 in0.0 mm 0.00 in0.0 mm
01:39 AM 60.3°F15.7°C 58.5°F14.7°C 94% 0.9 mph ENE1.4 kmh ENE 2.9 mph4.7 kmh 30.15 in1021.0 mb 0.00 in0.0 mm 0.00 in0.0 mm 0.00 in0.0 mm
01:29 AM 60.3°F15.7°C 58.5°F14.7°C 94% Calm Calm -- 30.16 in1021.3 mb 0.00 in0.0 mm 0.00 in0.0 mm 0.00 in0.0 mm
01:19 AM 60.4°F15.8°C 58.6°F14.8°C 94% 2.0 mph NNW3.2 kmh NNW 6.0 mph9.7 kmh 30.16 in1021.3 mb 0.00 in0.0 mm 0.00 in0.0 mm 0.00 in0.0 mm
01:09 AM 60.4°F15.8°C 58.6°F14.8°C 94% 2.0 mph NNW3.2 kmh NNW 4.9 mph7.9 kmh 30.16 in1021.3 mb 0.00 in0.0 mm 0.00 in0.0 mm 0.00 in0.0 mm
12:59 AM 60.4°F15.8°C 58.6°F14.8°C 94% 2.9 mph NW4.7 kmh NW 4.9 mph7.9 kmh 30.16 in1021.3 mb 0.00 in0.0 mm 0.00 in0.0 mm 0.00 in0.0 mm
12:49 AM 60.6°F15.9°C 58.8°F14.9°C 94% 2.9 mph NNW4.7 kmh NNW 8.1 mph13.0 kmh 30.16 in1021.3 mb 0.00 in0.0 mm 0.00 in0.0 mm 0.00 in0.0 mm
12:39 AM 60.6°F15.9°C 58.8°F14.9°C 94% 2.9 mph NW4.7 kmh NW 6.9 mph11.1 kmh 30.16 in1021.3 mb 0.00 in0.0 mm 0.00 in0.0 mm 0.00 in0.0 mm
12:29 AM 60.6°F15.9°C 58.8°F14.9°C 94% 2.0 mph WNW3.2 kmh WNW 4.0 mph6.4 kmh 30.16 in1021.3 mb 0.00 in0.0 mm 0.00 in0.0 mm 0.00 in0.0 mm
12:19 AM 60.6°F15.9°C 58.8°F14.9°C 94% 0.9 mph NNW1.4 kmh NNW 2.9 mph4.7 kmh 30.16 in1021.3 mb 0.00 in0.0 mm 0.00 in0.0 mm 0.00 in0.0 mm
12:09 AM 60.6°F15.9°C 58.8°F14.9°C 94% 2.0 mph NNW3.2 kmh NNW 2.9 mph4.7 kmh 30.17 in1021.7 mb 0.00 in0.0 mm 0.00 in0.0 mm 0.00 in0.0 mm